createdAt,value
2018-12-18T00:00:21.416Z,11.75
2018-12-18T00:01:22.389Z,9.90
2018-12-18T00:02:23.375Z,11.95
2018-12-18T00:03:24.463Z,11.83
2018-12-18T00:04:25.546Z,11.85
2018-12-18T00:05:32.599Z,9.43
2018-12-18T00:06:33.675Z,12.00
2018-12-18T00:07:34.767Z,14.05
2018-12-18T00:08:35.858Z,13.13
2018-12-18T00:09:36.941Z,13.03
2018-12-18T00:10:43.971Z,9.95
2018-12-18T00:11:44.944Z,15.08
2018-12-18T00:12:46.251Z,11.50
2018-12-18T00:13:47.350Z,11.40
2018-12-18T00:14:48.512Z,12.45
2018-12-18T00:15:49.735Z,10.68
2018-12-18T00:16:50.826Z,10.00
2018-12-18T00:17:51.815Z,11.85
2018-12-18T00:18:52.776Z,11.48
2018-12-18T00:19:53.750Z,8.85
2018-12-18T00:21:01.679Z,11.68
2018-12-18T00:22:03.291Z,15.20
2018-12-18T00:23:04.300Z,14.45
2018-12-18T00:24:05.292Z,10.10
2018-12-18T00:25:06.473Z,11.28
2018-12-18T00:26:07.555Z,13.40
2018-12-18T00:27:08.531Z,10.82
2018-12-18T00:28:09.620Z,10.43
2018-12-18T00:29:10.612Z,13.03
2018-12-18T00:30:11.591Z,11.68
2018-12-18T00:31:12.560Z,9.88
2018-12-18T00:32:13.533Z,15.50
2018-12-18T00:33:14.519Z,13.80
2018-12-18T00:34:15.475Z,10.38
2018-12-18T00:35:16.472Z,13.48
2018-12-18T00:36:17.460Z,8.88
2018-12-18T00:37:18.432Z,11.57
2018-12-18T00:38:19.420Z,12.25
2018-12-18T00:39:20.392Z,11.25
2018-12-18T00:40:21.611Z,10.93
2018-12-18T00:41:22.809Z,12.50
2018-12-18T00:42:23.774Z,12.03
2018-12-18T00:43:24.769Z,8.95
2018-12-18T00:44:25.744Z,13.80
2018-12-18T00:45:26.729Z,12.28
2018-12-18T00:46:27.712Z,11.45
2018-12-18T00:47:28.679Z,12.07
2018-12-18T00:48:29.755Z,9.90
2018-12-18T00:49:30.843Z,11.97
2018-12-18T00:50:31.918Z,14.18
2018-12-18T00:51:32.910Z,12.33
2018-12-18T00:52:33.878Z,12.37
2018-12-18T00:53:34.855Z,14.20
2018-12-18T00:54:35.835Z,12.30
2018-12-18T00:55:36.849Z,10.58
2018-12-18T00:56:37.816Z,15.05
2018-12-18T00:57:38.832Z,10.95
2018-12-18T00:58:39.820Z,14.85
2018-12-18T00:59:40.811Z,17.00
2018-12-18T01:00:41.902Z,14.83
2018-12-18T01:01:45.100Z,15.30
2018-12-18T01:02:46.067Z,13.80
2018-12-18T01:03:52.563Z,15.63
2018-12-18T01:04:50.040Z,15.98
2018-12-18T01:05:51.356Z,17.73
2018-12-18T01:06:52.815Z,13.20
2018-12-18T01:07:53.952Z,13.55
2018-12-18T01:08:55.085Z,11.50
2018-12-18T01:09:56.055Z,11.18
2018-12-18T01:10:57.190Z,13.62
2018-12-18T01:11:58.180Z,11.10
2018-12-18T01:12:59.163Z,13.32
2018-12-18T01:14:00.270Z,12.05
2018-12-18T01:15:01.266Z,13.50
2018-12-18T01:16:02.444Z,13.53
2018-12-18T01:17:03.660Z,12.93
2018-12-18T01:18:04.641Z,15.38
2018-12-18T01:19:05.628Z,9.95
2018-12-18T01:20:06.711Z,13.40
2018-12-18T01:21:07.701Z,10.78
2018-12-18T01:22:08.700Z,13.35
2018-12-18T01:23:09.664Z,13.78
2018-12-18T01:24:10.756Z,14.20
2018-12-18T01:25:11.940Z,11.18
2018-12-18T01:26:12.912Z,13.05
2018-12-18T01:27:13.884Z,13.20
2018-12-18T01:28:14.854Z,13.62
2018-12-18T01:29:15.835Z,12.80
2018-12-18T01:30:16.798Z,14.25
2018-12-18T01:31:17.767Z,13.32
2018-12-18T01:32:18.748Z,12.33
2018-12-18T01:33:19.727Z,13.38
2018-12-18T01:34:20.692Z,12.35
2018-12-18T01:35:21.732Z,16.65
2018-12-18T01:36:22.713Z,12.30
2018-12-18T01:37:23.688Z,13.65
2018-12-18T01:38:24.660Z,10.10
2018-12-18T01:39:32.733Z,12.95
2018-12-18T01:40:33.712Z,14.73
2018-12-18T01:41:34.699Z,14.30
2018-12-18T01:42:35.667Z,15.00
2018-12-18T01:43:36.951Z,14.07
2018-12-18T01:44:37.924Z,13.75
2018-12-18T01:45:38.911Z,14.07
2018-12-18T01:46:39.883Z,15.75
2018-12-18T01:47:40.863Z,17.37
2018-12-18T01:48:41.845Z,15.13
2018-12-18T01:49:42.823Z,13.08
2018-12-18T01:50:43.891Z,11.53
2018-12-18T01:51:44.967Z,11.50
2018-12-18T01:52:45.935Z,12.90
2018-12-18T01:53:46.944Z,16.02
2018-12-18T01:54:47.912Z,13.68
2018-12-18T01:55:48.934Z,11.40
2018-12-18T01:56:49.916Z,14.85
2018-12-18T01:57:50.888Z,13.35
2018-12-18T01:58:51.877Z,13.13
2018-12-18T01:59:52.866Z,13.68
2018-12-18T02:00:53.836Z,11.15
2018-12-18T02:01:54.829Z,15.40
2018-12-18T02:03:02.781Z,12.65
2018-12-18T02:04:06.058Z,13.48
2018-12-18T02:05:06.966Z,10.70
2018-12-18T02:06:08.270Z,13.10
2018-12-18T02:07:09.543Z,14.68
2018-12-18T02:08:10.515Z,15.60
2018-12-18T02:09:11.503Z,12.55
2018-12-18T02:10:12.469Z,13.48
2018-12-18T02:11:13.487Z,10.03
2018-12-18T02:12:14.456Z,15.32
2018-12-18T02:13:22.489Z,12.98
2018-12-18T02:14:23.571Z,9.70
2018-12-18T02:15:24.821Z,13.70
2018-12-18T02:16:25.889Z,11.65
2018-12-18T02:17:26.981Z,12.40
2018-12-18T02:18:27.954Z,14.13
2018-12-18T02:19:28.973Z,12.35
2018-12-18T02:20:29.974Z,15.72
2018-12-18T02:21:30.963Z,13.70
2018-12-18T02:22:31.936Z,12.88
2018-12-18T02:23:32.901Z,13.48
2018-12-18T02:24:33.883Z,11.10
2018-12-18T02:25:35.323Z,11.30
2018-12-18T02:26:36.302Z,11.65
2018-12-18T02:27:37.291Z,15.43
2018-12-18T02:28:38.305Z,14.70
2018-12-18T02:29:39.275Z,12.13
2018-12-18T02:30:40.306Z,14.47
2018-12-18T02:31:41.274Z,14.43
2018-12-18T02:32:42.344Z,11.08
2018-12-18T02:33:43.360Z,11.53
2018-12-18T02:34:44.328Z,11.43
2018-12-18T02:35:45.423Z,14.00
2018-12-18T02:36:46.517Z,13.48
2018-12-18T02:37:47.607Z,11.95
2018-12-18T02:38:48.620Z,15.18
2018-12-18T02:39:49.609Z,11.18
2018-12-18T02:40:50.737Z,13.32
2018-12-18T02:41:51.722Z,12.60
2018-12-18T02:42:52.711Z,12.75
2018-12-18T02:43:53.692Z,13.32
2018-12-18T02:44:55.352Z,11.30
2018-12-18T02:45:56.323Z,13.80
2018-12-18T02:46:57.408Z,14.58
2018-12-18T02:47:58.503Z,14.95
2018-12-18T02:49:00.198Z,10.90
2018-12-18T02:50:01.382Z,12.80
2018-12-18T02:51:02.565Z,12.82
2018-12-18T02:52:03.548Z,13.35
2018-12-18T02:53:04.548Z,11.43
2018-12-18T02:54:05.640Z,13.28
2018-12-18T02:55:06.829Z,12.90
2018-12-18T02:56:07.911Z,14.95
2018-12-18T02:57:08.887Z,10.00
2018-12-18T02:58:09.871Z,13.58
2018-12-18T02:59:10.853Z,14.60
2018-12-18T03:00:12.254Z,13.05
2018-12-18T03:01:13.355Z,15.30
2018-12-18T03:02:14.447Z,10.90
2018-12-18T03:03:15.431Z,18.07
2018-12-18T03:04:21.388Z,13.53
2018-12-18T03:05:19.756Z,14.33
2018-12-18T03:06:20.741Z,12.20
2018-12-18T03:07:21.730Z,10.45
2018-12-18T03:08:22.796Z,13.95
2018-12-18T03:09:23.913Z,11.57
2018-12-18T03:10:24.890Z,12.33
2018-12-18T03:11:25.878Z,12.55
2018-12-18T03:12:26.962Z,12.60
2018-12-18T03:13:27.940Z,12.65
2018-12-18T03:14:28.907Z,11.85
2018-12-18T03:15:29.897Z,10.78
2018-12-18T03:16:30.863Z,13.53
2018-12-18T03:17:31.834Z,10.28
2018-12-18T03:18:32.810Z,15.30
2018-12-18T03:19:33.817Z,14.65
2018-12-18T03:20:34.908Z,11.78
2018-12-18T03:21:35.979Z,13.25
2018-12-18T03:22:36.966Z,17.48
2018-12-18T03:23:38.040Z,11.70
2018-12-18T03:24:39.176Z,13.88
2018-12-18T03:25:40.184Z,12.58
2018-12-18T03:26:48.279Z,13.50
2018-12-18T03:27:49.270Z,11.63
2018-12-18T03:28:50.677Z,10.78
2018-12-18T03:29:51.781Z,12.53
2018-12-18T03:30:52.965Z,12.00
2018-12-18T03:31:54.462Z,10.45
2018-12-18T03:32:55.851Z,14.33
2018-12-18T03:33:57.097Z,10.58
2018-12-18T03:34:58.059Z,11.75
2018-12-18T03:35:59.147Z,14.10
2018-12-18T03:37:00.146Z,13.85
2018-12-18T03:38:01.241Z,13.62
2018-12-18T03:39:04.216Z,10.58
2018-12-18T03:40:05.712Z,13.18
2018-12-18T03:41:06.687Z,12.90
2018-12-18T03:42:07.656Z,13.13
2018-12-18T03:43:15.509Z,12.65
2018-12-18T03:44:16.595Z,12.73
2018-12-18T03:45:17.569Z,13.95
2018-12-18T03:46:18.551Z,12.95
2018-12-18T03:47:19.561Z,13.00
2018-12-18T03:48:20.537Z,11.57
2018-12-18T03:49:21.539Z,12.63
2018-12-18T03:50:22.607Z,14.28
2018-12-18T03:51:23.691Z,10.85
2018-12-18T03:52:24.670Z,13.85
2018-12-18T03:53:25.852Z,10.80
2018-12-18T03:54:26.836Z,12.25
2018-12-18T03:55:27.908Z,15.75
2018-12-18T03:56:28.989Z,10.63
2018-12-18T03:57:30.079Z,18.87
2018-12-18T03:58:31.128Z,12.63
2018-12-18T03:59:32.122Z,11.05
2018-12-18T04:00:33.180Z,14.60
2018-12-18T04:01:34.252Z,14.43
2018-12-18T04:02:35.436Z,12.15
2018-12-18T04:03:36.936Z,14.28
2018-12-18T04:04:38.028Z,10.75
2018-12-18T04:05:39.014Z,12.47
2018-12-18T04:06:40.108Z,13.80
2018-12-18T04:07:41.073Z,11.25
2018-12-18T04:08:42.039Z,10.55
2018-12-18T04:09:43.352Z,11.28
2018-12-18T04:10:44.449Z,14.70
2018-12-18T04:11:51.623Z,12.68
2018-12-18T04:12:52.733Z,11.43
2018-12-18T04:13:53.693Z,13.35
2018-12-18T04:14:54.699Z,14.63
2018-12-18T04:15:55.959Z,15.18
2018-12-18T04:16:56.952Z,10.72
2018-12-18T04:17:58.026Z,14.85
2018-12-18T04:18:59.046Z,14.93
2018-12-18T04:20:00.029Z,12.40
2018-12-18T04:21:01.032Z,10.75
2018-12-18T04:22:02.015Z,10.55
2018-12-18T04:23:03.120Z,13.25
2018-12-18T04:24:04.094Z,13.30
2018-12-18T04:25:05.181Z,11.83
2018-12-18T04:26:06.169Z,17.02
2018-12-18T04:27:07.344Z,12.93
2018-12-18T04:28:08.317Z,11.55
2018-12-18T04:29:09.308Z,10.30
2018-12-18T04:30:10.518Z,17.67
2018-12-18T04:31:11.589Z,14.90
2018-12-18T04:32:12.619Z,11.28
2018-12-18T04:33:13.586Z,10.25
2018-12-18T04:34:14.573Z,12.70
2018-12-18T04:35:15.564Z,14.03
2018-12-18T04:36:16.540Z,14.47
2018-12-18T04:37:17.608Z,13.08
2018-12-18T04:38:18.601Z,10.75
2018-12-18T04:39:19.572Z,10.65
2018-12-18T04:40:20.543Z,12.55
2018-12-18T04:41:21.549Z,16.40
2018-12-18T04:42:22.525Z,11.63
2018-12-18T04:43:23.484Z,12.98
2018-12-18T04:44:24.479Z,12.53
2018-12-18T04:45:25.490Z,13.62
2018-12-18T04:46:26.488Z,12.80
2018-12-18T04:47:34.360Z,13.35
2018-12-18T04:48:35.346Z,10.68
2018-12-18T04:49:36.316Z,14.90
2018-12-18T04:50:37.304Z,13.80
2018-12-18T04:51:38.291Z,14.40
2018-12-18T04:52:39.284Z,14.03
2018-12-18T04:53:40.379Z,9.78
2018-12-18T04:54:41.472Z,14.93
2018-12-18T04:55:42.533Z,14.98
2018-12-18T04:56:43.515Z,9.95
2018-12-18T04:57:44.620Z,12.18
2018-12-18T04:58:45.778Z,13.18
2018-12-18T04:59:46.768Z,12.90
2018-12-18T05:00:47.754Z,15.45
2018-12-18T05:01:48.873Z,14.68
2018-12-18T05:02:49.840Z,10.38
2018-12-18T05:03:50.818Z,13.72
2018-12-18T05:04:51.836Z,15.08
2018-12-18T05:05:52.911Z,15.25
2018-12-18T05:06:53.943Z,12.53
2018-12-18T05:07:55.280Z,10.82
2018-12-18T05:08:56.262Z,14.68
2018-12-18T05:09:57.252Z,15.18
2018-12-18T05:10:58.231Z,15.35
2018-12-18T05:11:59.223Z,14.05
2018-12-18T05:13:00.193Z,12.90
2018-12-18T05:14:01.436Z,11.75
2018-12-18T05:15:03.090Z,15.72
2018-12-18T05:16:04.089Z,16.50
2018-12-18T05:17:05.067Z,12.63
2018-12-18T05:18:06.056Z,13.03
2018-12-18T05:19:07.034Z,12.68
2018-12-18T05:20:08.141Z,13.62
2018-12-18T05:21:09.110Z,14.53
2018-12-18T05:22:10.098Z,12.85
2018-12-18T05:23:11.269Z,13.30
2018-12-18T05:24:12.353Z,13.45
2018-12-18T05:25:13.357Z,13.55
2018-12-18T05:26:14.318Z,12.65
2018-12-18T05:27:15.291Z,13.03
2018-12-18T05:28:16.421Z,17.40
2018-12-18T05:29:17.474Z,15.15
2018-12-18T05:30:18.476Z,15.43
2018-12-18T05:31:19.484Z,15.35
2018-12-18T05:32:20.462Z,12.45
2018-12-18T05:33:21.470Z,16.37
2018-12-18T05:34:22.501Z,15.83
2018-12-18T05:35:23.519Z,20.57
2018-12-18T05:36:25.970Z,15.78
2018-12-18T05:37:27.369Z,14.00
2018-12-18T05:38:28.352Z,15.10
2018-12-18T05:39:29.382Z,15.98
2018-12-18T05:40:30.458Z,15.10
2018-12-18T05:41:31.460Z,16.48
2018-12-18T05:42:32.475Z,15.63
2018-12-18T05:43:33.589Z,15.68
2018-12-18T05:44:34.623Z,18.52
2018-12-18T05:45:35.651Z,18.40
2018-12-18T05:46:36.626Z,15.38
2018-12-18T05:47:37.608Z,14.20
2018-12-18T05:48:38.883Z,17.55
2018-12-18T05:49:39.876Z,15.72
2018-12-18T05:50:40.965Z,18.40
2018-12-18T05:51:41.972Z,16.35
2018-12-18T05:52:42.955Z,14.45
2018-12-18T05:53:43.949Z,18.10
2018-12-18T05:54:44.949Z,14.53
2018-12-18T05:55:46.066Z,16.23
2018-12-18T05:56:47.048Z,13.55
2018-12-18T05:57:48.242Z,17.20
2018-12-18T05:58:49.216Z,15.93
2018-12-18T05:59:50.784Z,18.70
2018-12-18T06:00:51.914Z,14.43
2018-12-18T06:01:52.897Z,18.95
2018-12-18T06:02:54.431Z,17.92
2018-12-18T06:03:55.435Z,17.98
2018-12-18T06:05:03.021Z,15.83
2018-12-18T06:05:59.542Z,19.42
2018-12-18T06:07:00.528Z,16.17
2018-12-18T06:08:01.530Z,15.10
2018-12-18T06:09:04.848Z,18.80
2018-12-18T06:10:12.763Z,21.48
2018-12-18T06:11:13.800Z,17.82
2018-12-18T06:12:21.663Z,19.17
2018-12-18T06:13:22.990Z,16.30
2018-12-18T06:14:24.108Z,13.60
2018-12-18T06:15:25.351Z,16.25
2018-12-18T06:16:27.142Z,15.58
2018-12-18T06:17:28.378Z,18.02
2018-12-18T06:18:29.411Z,20.72
2018-12-18T06:19:30.585Z,17.87
2018-12-18T06:20:31.632Z,17.20
2018-12-18T06:21:32.618Z,15.80
2018-12-18T06:22:33.645Z,17.92
2018-12-18T06:23:35.328Z,16.90
2018-12-18T06:24:36.331Z,17.25
2018-12-18T06:25:37.416Z,16.95
2018-12-18T06:26:39.544Z,17.50
2018-12-18T06:27:40.593Z,16.45
2018-12-18T06:28:41.734Z,19.37
2018-12-18T06:29:42.906Z,19.00
2018-12-18T06:30:43.936Z,18.35
2018-12-18T06:31:44.971Z,18.55
2018-12-18T06:32:46.037Z,16.50
2018-12-18T06:33:47.159Z,22.15
2018-12-18T06:34:48.160Z,17.65
2018-12-18T06:35:49.293Z,16.95
2018-12-18T06:36:51.436Z,17.57
2018-12-18T06:37:52.424Z,20.30
2018-12-18T06:38:53.419Z,19.42
2018-12-18T06:39:55.216Z,19.57
2018-12-18T06:40:56.222Z,16.87
2018-12-18T06:42:04.331Z,14.53
2018-12-18T06:43:06.108Z,19.98
2018-12-18T06:44:07.125Z,16.77
2018-12-18T06:45:08.255Z,15.75
2018-12-18T06:46:09.548Z,20.88
2018-12-18T06:47:10.637Z,19.32
2018-12-18T06:48:11.652Z,18.42
2018-12-18T06:49:13.832Z,18.90
2018-12-18T06:50:14.844Z,17.92
2018-12-18T06:51:15.869Z,19.92
2018-12-18T06:52:16.894Z,19.87
2018-12-18T06:53:18.847Z,14.63
2018-12-18T06:54:19.844Z,17.07
2018-12-18T06:55:21.892Z,21.42
2018-12-18T06:56:22.904Z,16.75
2018-12-18T06:57:24.033Z,18.15
2018-12-18T06:58:25.063Z,17.12
2018-12-18T06:59:26.240Z,17.23
2018-12-18T07:00:27.229Z,17.60
2018-12-18T07:01:28.228Z,17.25
2018-12-18T07:02:29.224Z,21.37
2018-12-18T07:03:30.228Z,18.25
2018-12-18T07:04:31.216Z,17.02
2018-12-18T07:05:32.272Z,16.55
2018-12-18T07:06:33.378Z,17.40
2018-12-18T07:07:34.510Z,19.50
2018-12-18T07:08:35.510Z,16.15
2018-12-18T07:09:36.508Z,19.95
2018-12-18T07:10:37.499Z,19.30
2018-12-18T07:11:38.568Z,16.32
2018-12-18T07:12:39.544Z,19.65
2018-12-18T07:13:40.914Z,19.12
2018-12-18T07:14:42.057Z,19.70
2018-12-18T07:15:43.376Z,16.55
2018-12-18T07:16:44.587Z,17.00
2018-12-18T07:17:45.764Z,17.37
2018-12-18T07:18:46.727Z,18.00
2018-12-18T07:19:47.759Z,18.67
2018-12-18T07:20:48.736Z,18.57
2018-12-18T07:21:49.759Z,19.75
2018-12-18T07:22:51.100Z,18.10
2018-12-18T07:23:52.134Z,21.27
2018-12-18T07:24:53.142Z,18.85
2018-12-18T07:25:54.192Z,24.32
2018-12-18T07:26:55.239Z,21.68
2018-12-18T07:28:03.055Z,17.90
2018-12-18T07:29:04.109Z,18.10
2018-12-18T07:30:06.235Z,17.35
2018-12-18T07:31:07.388Z,17.20
2018-12-18T07:32:08.646Z,18.12
2018-12-18T07:33:09.659Z,22.22
2018-12-18T07:34:10.763Z,15.93
2018-12-18T07:35:11.866Z,22.98
2018-12-18T07:36:12.862Z,22.87
2018-12-18T07:37:13.948Z,20.68
2018-12-18T07:38:14.936Z,18.57
2018-12-18T07:39:15.940Z,22.62
2018-12-18T07:40:17.023Z,21.80
2018-12-18T07:41:18.111Z,21.10
2018-12-18T07:42:19.121Z,16.82
2018-12-18T07:43:20.116Z,17.57
2018-12-18T07:44:21.325Z,18.10
2018-12-18T07:45:22.761Z,17.52
2018-12-18T07:46:23.810Z,18.95
2018-12-18T07:47:24.785Z,17.65
2018-12-18T07:48:25.792Z,19.87
2018-12-18T07:49:26.918Z,17.57
2018-12-18T07:50:28.023Z,17.62
2018-12-18T07:51:29.151Z,17.25
2018-12-18T07:52:30.172Z,18.67
2018-12-18T07:53:31.264Z,19.12
2018-12-18T07:54:32.393Z,16.30
2018-12-18T07:55:33.387Z,17.30
2018-12-18T07:56:34.368Z,22.42
2018-12-18T07:57:35.472Z,18.65
2018-12-18T07:58:36.456Z,19.02
2018-12-18T07:59:37.435Z,15.32
2018-12-18T08:00:39.423Z,18.07
2018-12-18T08:01:40.568Z,16.10
2018-12-18T08:02:41.550Z,19.12
2018-12-18T08:03:42.647Z,21.57
2018-12-18T08:04:43.684Z,18.77
2018-12-18T08:05:44.677Z,16.57
2018-12-18T08:06:45.694Z,16.27
2018-12-18T08:07:46.797Z,15.72
2018-12-18T08:08:47.790Z,22.67
2018-12-18T08:09:48.907Z,16.02
2018-12-18T08:10:50.001Z,21.93
2018-12-18T08:11:51.077Z,20.25
2018-12-18T08:12:52.119Z,16.42
2018-12-18T08:13:53.108Z,17.05
2018-12-18T08:14:54.111Z,21.05
2018-12-18T08:15:55.095Z,22.30
2018-12-18T08:16:56.110Z,20.45
2018-12-18T08:17:57.118Z,15.88
2018-12-18T08:18:58.225Z,18.30
2018-12-18T08:19:59.333Z,17.15
2018-12-18T08:21:00.376Z,16.85
2018-12-18T08:22:01.383Z,16.25
2018-12-18T08:23:02.481Z,16.37
2018-12-18T08:24:03.609Z,16.10
2018-12-18T08:25:05.777Z,18.87
2018-12-18T08:26:06.823Z,20.08
2018-12-18T08:27:07.801Z,19.40
2018-12-18T08:28:08.792Z,18.52
2018-12-18T08:29:09.791Z,21.90
2018-12-18T08:30:10.898Z,24.67
2018-12-18T08:31:11.994Z,21.25
2018-12-18T08:32:13.064Z,19.87
2018-12-18T08:33:21.062Z,19.48
2018-12-18T08:34:22.045Z,19.15
2018-12-18T08:35:23.101Z,19.92
2018-12-18T08:36:24.129Z,25.82
2018-12-18T08:37:25.152Z,23.45
2018-12-18T08:38:26.425Z,27.73
2018-12-18T08:39:27.404Z,27.22
2018-12-18T08:40:28.401Z,18.67
2018-12-18T08:41:29.464Z,21.23
2018-12-18T08:42:30.508Z,25.60
2018-12-18T08:43:31.564Z,21.75
2018-12-18T08:44:32.672Z,24.35
2018-12-18T08:45:33.662Z,26.15
2018-12-18T08:46:34.661Z,26.87
2018-12-18T08:47:35.789Z,25.55
2018-12-18T08:48:36.821Z,22.62
2018-12-18T08:49:37.806Z,21.35
2018-12-18T08:50:38.793Z,27.20
2018-12-18T08:51:40.132Z,26.20
2018-12-18T08:52:41.141Z,19.92
2018-12-18T08:53:42.133Z,24.87
2018-12-18T08:54:43.168Z,25.80
2018-12-18T08:55:44.204Z,26.87
2018-12-18T08:56:45.250Z,27.22
2018-12-18T08:57:46.356Z,25.12
2018-12-18T08:58:47.359Z,21.15
2018-12-18T08:59:48.364Z,29.10
2018-12-18T09:00:49.358Z,23.73
2018-12-18T09:01:57.461Z,23.90
2018-12-18T09:02:58.451Z,22.30
2018-12-18T09:03:59.452Z,22.30
2018-12-18T09:05:00.440Z,28.47
2018-12-18T09:06:01.529Z,27.00
2018-12-18T09:07:02.555Z,23.83
2018-12-18T09:08:03.636Z,20.85
2018-12-18T09:09:05.692Z,21.48
2018-12-18T09:10:07.636Z,22.45
2018-12-18T09:11:08.631Z,24.25
2018-12-18T09:12:11.654Z,28.35
2018-12-18T09:13:12.680Z,25.82
2018-12-18T09:14:13.652Z,24.57
2018-12-18T09:15:20.864Z,23.25
2018-12-18T09:16:28.076Z,27.93
2018-12-18T09:17:35.068Z,25.48
2018-12-18T09:18:36.116Z,24.92
2018-12-18T09:19:37.101Z,24.37
2018-12-18T09:20:38.107Z,26.55
2018-12-18T09:21:39.084Z,28.35
2018-12-18T09:22:40.085Z,24.70
2018-12-18T09:23:41.592Z,19.73
2018-12-18T09:24:42.564Z,28.38
2018-12-18T09:25:43.658Z,19.75
2018-12-18T09:26:44.685Z,21.25
2018-12-18T09:27:45.660Z,23.18
2018-12-18T09:28:48.315Z,21.57
2018-12-18T09:29:49.297Z,21.45
2018-12-18T09:30:50.288Z,19.23
2018-12-18T09:31:51.268Z,21.35
2018-12-18T09:32:53.808Z,20.25
2018-12-18T09:33:54.868Z,24.20
2018-12-18T09:34:55.866Z,21.50
2018-12-18T09:35:56.871Z,22.95
2018-12-18T09:36:57.884Z,25.52
2018-12-18T09:38:05.049Z,25.05
2018-12-18T09:39:12.503Z,19.95
2018-12-18T09:40:15.501Z,21.33
2018-12-18T09:41:25.872Z,18.35
2018-12-18T09:42:33.109Z,20.10
2018-12-18T09:43:40.165Z,19.80
2018-12-18T09:44:41.324Z,22.42
2018-12-18T09:45:42.423Z,16.97
2018-12-18T09:46:43.551Z,18.17
2018-12-18T09:47:44.658Z,18.20
2018-12-18T09:48:45.659Z,21.12
2018-12-18T09:49:46.657Z,19.57
2018-12-18T09:50:47.750Z,20.20
2018-12-18T09:51:48.841Z,23.25
2018-12-18T09:52:49.929Z,22.98
2018-12-18T09:53:50.913Z,16.80
2018-12-18T09:54:51.910Z,19.27
2018-12-18T09:55:52.919Z,22.37
2018-12-18T09:56:54.310Z,16.32
2018-12-18T09:57:57.395Z,24.02
2018-12-18T09:58:58.932Z,19.45
2018-12-18T10:00:00.009Z,18.50
2018-12-18T10:01:01.140Z,22.07
2018-12-18T10:02:02.411Z,18.07
2018-12-18T10:03:03.491Z,24.02
2018-12-18T10:04:04.498Z,21.65
2018-12-18T10:05:05.564Z,16.65
2018-12-18T10:06:06.558Z,20.48
2018-12-18T10:07:07.622Z,17.85
2018-12-18T10:08:08.640Z,18.25
2018-12-18T10:09:10.021Z,19.90
2018-12-18T10:10:11.140Z,21.10
2018-12-18T10:11:12.151Z,21.68
2018-12-18T10:12:15.262Z,18.70
2018-12-18T10:13:16.380Z,18.75
2018-12-18T10:14:17.479Z,22.55
2018-12-18T10:15:18.618Z,20.77
2018-12-18T10:16:19.722Z,19.73
2018-12-18T10:17:20.731Z,15.18
2018-12-18T10:18:21.720Z,16.07
2018-12-18T10:19:23.360Z,16.45
2018-12-18T10:20:24.396Z,18.90
2018-12-18T10:21:25.532Z,18.15
2018-12-18T10:22:26.585Z,19.17
2018-12-18T10:23:27.683Z,18.17
2018-12-18T10:24:28.701Z,19.73
2018-12-18T10:25:29.724Z,20.57
2018-12-18T10:26:30.718Z,20.70
2018-12-18T10:27:31.720Z,17.67
2018-12-18T10:28:32.761Z,19.73
2018-12-18T10:29:33.813Z,18.82
2018-12-18T10:30:35.053Z,19.00
2018-12-18T10:31:36.128Z,21.12
2018-12-18T10:32:37.149Z,17.17
2018-12-18T10:33:38.291Z,16.35
2018-12-18T10:34:39.396Z,17.07
2018-12-18T10:35:40.707Z,18.52
2018-12-18T10:36:41.820Z,23.15
2018-12-18T10:37:42.908Z,18.05
2018-12-18T10:38:44.055Z,16.80
2018-12-18T10:39:45.352Z,18.67
2018-12-18T10:40:46.621Z,14.33
2018-12-18T10:41:47.707Z,18.10
2018-12-18T10:42:48.690Z,19.02
2018-12-18T10:43:49.754Z,18.95
2018-12-18T10:44:50.772Z,22.37
2018-12-18T10:45:51.865Z,24.18
2018-12-18T10:46:52.882Z,17.98
2018-12-18T10:47:53.895Z,20.15
2018-12-18T10:48:54.893Z,20.80
2018-12-18T10:49:55.927Z,20.25
2018-12-18T10:50:57.119Z,18.40
2018-12-18T10:51:58.206Z,18.40
2018-12-18T10:52:59.377Z,18.98
2018-12-18T10:54:00.574Z,19.67
2018-12-18T10:55:01.636Z,20.43
2018-12-18T10:56:02.994Z,21.15
2018-12-18T10:57:03.967Z,19.02
2018-12-18T10:58:05.032Z,17.90
2018-12-18T10:59:06.216Z,16.12
2018-12-18T11:00:10.776Z,18.42
2018-12-18T11:01:12.809Z,18.50
2018-12-18T11:02:13.826Z,21.33
2018-12-18T11:03:15.062Z,20.00
2018-12-18T11:04:16.299Z,18.37
2018-12-18T11:05:17.432Z,18.90
2018-12-18T11:06:18.558Z,18.07
2018-12-18T11:07:19.565Z,19.52
2018-12-18T11:08:20.559Z,17.80
2018-12-18T11:09:21.573Z,20.30
2018-12-18T11:10:22.898Z,16.97
2018-12-18T11:11:23.990Z,21.55
2018-12-18T11:12:39.939Z,21.97
2018-12-18T11:13:41.026Z,21.23
2018-12-18T11:14:42.119Z,20.75
2018-12-18T11:15:43.543Z,17.90
2018-12-18T11:16:44.875Z,17.40
2018-12-18T11:17:45.905Z,14.75
2018-12-18T11:18:47.186Z,18.10
2018-12-18T11:19:49.607Z,17.50
2018-12-18T11:20:51.019Z,15.65
2018-12-18T11:21:52.145Z,21.97
2018-12-18T11:22:53.115Z,20.77
2018-12-18T11:23:54.173Z,18.45
2018-12-18T11:24:55.255Z,18.27
2018-12-18T11:25:56.366Z,19.17
2018-12-18T11:26:57.443Z,13.85
2018-12-18T11:27:58.550Z,19.92
2018-12-18T11:28:59.681Z,15.50
2018-12-18T11:30:00.848Z,16.07
2018-12-18T11:31:01.882Z,13.98
2018-12-18T11:32:02.939Z,16.45
2018-12-18T11:33:04.030Z,15.93
2018-12-18T11:34:05.074Z,17.90
2018-12-18T11:35:06.142Z,15.70
2018-12-18T11:36:07.395Z,20.43
2018-12-18T11:37:08.453Z,15.78
2018-12-18T11:38:09.553Z,17.85
2018-12-18T11:39:10.572Z,16.30
2018-12-18T11:40:12.117Z,15.80
2018-12-18T11:41:13.556Z,18.48
2018-12-18T11:42:14.627Z,16.85
2018-12-18T11:43:15.644Z,15.38
2018-12-18T11:44:16.672Z,15.93
2018-12-18T11:45:17.706Z,16.40
2018-12-18T11:46:18.815Z,18.35
2018-12-18T11:47:19.874Z,18.85
2018-12-18T11:48:21.001Z,18.02
2018-12-18T11:49:22.037Z,16.10
2018-12-18T11:50:23.132Z,18.35
2018-12-18T11:51:24.151Z,15.93
2018-12-18T11:52:25.238Z,17.85
2018-12-18T11:53:26.232Z,15.03
2018-12-18T11:54:27.228Z,19.48
2018-12-18T11:55:28.561Z,16.23
2018-12-18T11:56:29.574Z,16.07
2018-12-18T11:57:30.600Z,15.58
2018-12-18T11:58:31.612Z,19.10
2018-12-18T11:59:32.781Z,20.43
2018-12-18T12:00:33.985Z,17.67
2018-12-18T12:01:35.528Z,18.02
2018-12-18T12:02:42.703Z,19.45
2018-12-18T12:03:39.615Z,21.48
2018-12-18T12:04:40.604Z,16.90
2018-12-18T12:05:41.740Z,19.77
2018-12-18T12:06:42.812Z,17.32
2018-12-18T12:07:44.579Z,16.45
2018-12-18T12:08:45.547Z,16.77
2018-12-18T12:09:46.660Z,15.75
2018-12-18T12:10:47.675Z,19.95
2018-12-18T12:11:48.727Z,17.67
2018-12-18T12:12:49.762Z,18.55
2018-12-18T12:13:50.745Z,18.48
2018-12-18T12:14:51.999Z,16.17
2018-12-18T12:15:52.988Z,18.62
2018-12-18T12:16:54.110Z,15.50
2018-12-18T12:17:55.325Z,19.30
2018-12-18T12:18:56.300Z,16.15
2018-12-18T12:19:57.738Z,17.65
2018-12-18T12:20:58.734Z,16.07
2018-12-18T12:21:59.823Z,15.18
2018-12-18T12:23:01.014Z,16.30
2018-12-18T12:24:02.120Z,13.62
2018-12-18T12:25:05.792Z,17.45
2018-12-18T12:26:12.910Z,14.20
2018-12-18T12:27:19.923Z,17.07
2018-12-18T12:28:20.909Z,14.20
2018-12-18T12:29:21.933Z,16.02
2018-12-18T12:30:23.025Z,16.02
2018-12-18T12:31:30.892Z,18.90
2018-12-18T12:32:32.773Z,15.28
2018-12-18T12:33:33.949Z,15.88
2018-12-18T12:34:35.080Z,18.25
2018-12-18T12:35:36.086Z,14.23
2018-12-18T12:36:37.105Z,18.12
2018-12-18T12:37:39.211Z,12.70
2018-12-18T12:38:40.212Z,17.48
2018-12-18T12:39:41.221Z,15.20
2018-12-18T12:40:42.278Z,17.95
2018-12-18T12:41:43.541Z,15.20
2018-12-18T12:42:44.575Z,16.77
2018-12-18T12:43:45.575Z,12.78
2018-12-18T12:44:46.668Z,15.30
2018-12-18T12:45:47.692Z,16.95
2018-12-18T12:46:48.703Z,17.25
2018-12-18T12:47:51.018Z,12.58
2018-12-18T12:48:53.263Z,14.53
2018-12-18T12:49:54.271Z,14.65
2018-12-18T12:50:55.261Z,15.60
2018-12-18T12:51:56.263Z,15.75
2018-12-18T12:52:57.426Z,14.28
2018-12-18T12:53:58.422Z,16.48
2018-12-18T12:54:59.454Z,15.10
2018-12-18T12:56:00.544Z,17.02
2018-12-18T12:57:01.691Z,16.23
2018-12-18T12:58:02.692Z,16.25
2018-12-18T12:59:03.714Z,15.70
2018-12-18T13:00:06.443Z,13.60
2018-12-18T13:01:07.478Z,15.45
2018-12-18T13:02:08.473Z,10.88
2018-12-18T13:03:09.511Z,17.25
2018-12-18T13:04:10.531Z,14.65
2018-12-18T13:05:12.125Z,16.95
2018-12-18T13:06:13.210Z,15.72
2018-12-18T13:07:14.219Z,13.45
2018-12-18T13:08:15.231Z,16.05
2018-12-18T13:09:16.215Z,14.83
2018-12-18T13:10:17.207Z,15.32
2018-12-18T13:11:18.196Z,12.43